»·PEaware :: N900TB CYZP-PAKT

N900TB :: CYZP-PAKT

FLIGHT INFORMATION

Flight Status: Arrived
Operator: Privately registered:
United States
More flights under this callsign
Pilot: Anonymous 14085 (14085)
Aircraft: SOCATA TBM-900
(TBM9)
More flights by this aircraft type
Origin: CYZP Sandspit
Canada
Destination: PAKT Ketchikan Intl
United States
More flights between these airports :: More routes between these airports
Route: YZP ANN
File this flight plan on PilotEdge
Remarks: RMK / SIMBRIEF
Altitude:
(Current/Filed)
22,000ft
Speed:
(Current/Filed)
307kts
Departed: 29-Jul-20 09:32 AM
Arrived: 29-Jul-20 10:15 AM
Distance/Time
Traveled:
126nm/0:43
Distance/Time
To Go:
Arrived

Flight Plot

Page will automatically refresh every two minutes.


Map Options




Map Legend


Flown Route
Filed Route
Departure Airport
Arrival Airport
Navaid (VOR, NDB)
Fix

Horizontal Profiles

Position Reports

Time Latitude Longitude Heading Altitude Ground
Speed
29-Jul-20 09:22 53.253068 -131.815975 234 29ft 0kts
29-Jul-20 09:23 53.253068 -131.815975 234 29ft 0kts
29-Jul-20 09:24 53.253068 -131.815975 234 29ft 0kts
29-Jul-20 09:25 53.253068 -131.815975 234 29ft 0kts
29-Jul-20 09:26 53.253068 -131.815975 234 29ft 0kts
29-Jul-20 09:27 53.253068 -131.815976 234 29ft 0kts
29-Jul-20 09:28 53.253068 -131.815976 234 29ft 0kts
29-Jul-20 09:28 53.253763 -131.815640 31 28ft 8kts
29-Jul-20 09:30 53.252465 -131.811590 142 28ft 13kts
29-Jul-20 09:30 53.249288 -131.808132 143 26ft 19kts
29-Jul-20 09:31 53.262961 -131.824348 322 596ft 110kts
29-Jul-20 09:33 53.302414 -131.816980 30 2944ft 145kts
29-Jul-20 09:33 53.332395 -131.793461 6 4770ft 146kts
29-Jul-20 09:34 53.373055 -131.786949 3 7047ft 150kts
29-Jul-20 09:35 53.414908 -131.781925 4 9206ft 155kts
29-Jul-20 09:36 53.458881 -131.776678 5 11402ft 164kts
29-Jul-20 09:37 53.505212 -131.771176 7 13550ft 171kts
29-Jul-20 09:38 53.553697 -131.765379 9 15634ft 180kts
29-Jul-20 09:39 53.604763 -131.759243 10 17645ft 191kts
29-Jul-20 09:40 53.659455 -131.752651 11 19435ft 204kts
29-Jul-20 09:41 53.718035 -131.745561 10 20927ft 225kts
29-Jul-20 09:42 53.783360 -131.737656 9 22053ft 247kts
29-Jul-20 09:43 53.858843 -131.728556 8 22062ft 290kts
29-Jul-20 09:44 53.941913 -131.718487 8 22052ft 305kts
29-Jul-20 09:45 54.027393 -131.708053 8 22051ft 309kts
29-Jul-20 09:46 54.113526 -131.697469 8 22043ft 311kts
29-Jul-20 09:47 54.199700 -131.686866 8 22042ft 310kts
29-Jul-20 09:48 54.285905 -131.676189 8 22040ft 310kts
29-Jul-20 09:49 54.376258 -131.664968 8 20650ft 333kts
29-Jul-20 09:50 54.468355 -131.653501 8 19341ft 328kts
29-Jul-20 09:51 54.557954 -131.642276 7 18074ft 318kts
29-Jul-20 09:52 54.644164 -131.631419 7 17114ft 307kts
29-Jul-20 09:53 54.728837 -131.620715 7 16017ft 304kts
29-Jul-20 09:54 54.812103 -131.610146 6 14913ft 296kts
29-Jul-20 09:55 54.893090 -131.599832 6 13837ft 285kts
29-Jul-20 09:56 54.970387 -131.589923 4 12807ft 274kts
29-Jul-20 09:57 55.045586 -131.580293 4 11814ft 270kts
29-Jul-20 09:58 55.114987 -131.626605 334 10820ft 270kts
29-Jul-20 09:59 55.181141 -131.685245 334 9843ft 264kts
29-Jul-20 10:00 55.245145 -131.742184 333 8892ft 254kts
29-Jul-20 10:01 55.307674 -131.798010 333 7969ft 251kts
29-Jul-20 10:02 55.367634 -131.851742 333 7065ft 225kts
29-Jul-20 10:03 55.419509 -131.898352 333 6289ft 199kts
29-Jul-20 10:04 55.467731 -131.941811 333 5585ft 190kts
29-Jul-20 10:05 55.513022 -131.984356 315 4979ft 179kts
29-Jul-20 10:06 55.485140 -132.015163 151 3804ft 171kts
29-Jul-20 10:07 55.451739 -131.959233 117 1891ft 167kts
29-Jul-20 10:08 55.435455 -131.904975 119 733ft 95kts
29-Jul-20 10:09 55.420507 -131.866424 121 1072ft 97kts
29-Jul-20 10:10 55.407422 -131.825343 116 1615ft 99kts
29-Jul-20 10:11 55.391606 -131.782563 123 1358ft 106kts
29-Jul-20 10:12 55.372996 -131.743885 133 383ft 97kts
29-Jul-20 10:13 55.357059 -131.716307 134 90ft 41kts
29-Jul-20 10:14 55.356249 -131.714902 137 90ft 0kts

Navigation Log

Ident Type
Flight plan parsing failed, navigation log unavailable